Time;durP1;ratioP1;P1;durP2;ratioP2;P2;SDS_P1;SDS_P2;PMS_P1;PMS_P2;Temp;Humidity;BMP_temperature;BMP_pressure;BME280_temperature;BME280_humidity;BME280_pressure;Samples;Min_cycle;Max_cycle;Signal;HPM_P1;HPM_P2
2022/06/09 00:00:47;;;;;;;1.97;1.87;;;17.00;99.90;;;17.58;nan;100047.50;4954651;28;20643;-66
2022/06/09 00:03:24;;;;;;;2.10;1.90;;;17.00;99.90;;;17.61;nan;100048.00;4952898;29;20643;-67
2022/06/09 00:05:52;;;;;;;1.60;1.50;;;17.00;99.90;;;17.64;nan;100050.31;4953664;29;20674;-66
2022/06/09 00:08:19;;;;;;;1.57;1.57;;;17.10;99.90;;;17.63;nan;100067.09;4952702;28;20655;-65
2022/06/09 00:10:56;;;;;;;1.43;1.33;;;17.10;99.90;;;17.58;nan;100063.34;4953849;28;20660;-65
2022/06/09 00:13:24;;;;;;;1.43;1.40;;;17.00;99.90;;;17.59;nan;100065.81;4951267;28;20659;-65
2022/06/09 00:15:51;;;;;;;1.67;1.60;;;17.00;99.90;;;17.47;nan;100064.50;4948884;29;20620;-65
2022/06/09 00:18:18;;;;;;;1.63;1.53;;;16.90;99.90;;;17.51;nan;100057.91;4951019;29;20660;-66
2022/06/09 00:20:45;;;;;;;1.60;1.50;;;17.00;99.90;;;17.36;nan;100066.63;4948068;28;20640;-65
2022/06/09 00:23:15;;;;;;;1.90;1.80;;;16.80;99.90;;;17.37;nan;100066.50;4954380;28;20718;-66
2022/06/09 00:25:42;;;;;;;1.80;1.70;;;16.80;99.90;;;17.21;nan;100068.31;4953829;28;20647;-65
2022/06/09 00:28:09;;;;;;;1.80;1.70;;;16.70;99.90;;;17.28;nan;100067.50;4953582;28;20738;-66
2022/06/09 00:30:37;;;;;;;1.43;1.43;;;16.70;99.90;;;17.24;nan;100070.63;4952170;28;20639;-66
2022/06/09 00:33:04;;;;;;;1.30;1.30;;;16.70;99.90;;;17.15;nan;100076.88;4954446;28;20616;-66
2022/06/09 00:35:31;;;;;;;1.80;1.70;;;16.60;99.90;;;17.20;nan;100066.66;4952951;28;20656;-66
2022/06/09 00:37:58;;;;;;;1.87;1.77;;;16.60;99.90;;;17.22;nan;100072.59;4937655;29;21234;-66
2022/06/09 00:40:26;;;;;;;1.70;1.70;;;16.60;99.90;;;17.24;nan;100082.00;4954132;28;20640;-66
2022/06/09 00:42:53;;;;;;;2.00;1.90;;;16.60;99.90;;;17.23;nan;100080.34;4954586;28;20762;-64
2022/06/09 00:45:31;;;;;;;2.00;1.77;;;16.70;99.90;;;17.21;nan;100070.94;4954717;28;20632;-65
2022/06/09 00:48:24;;;;;;;1.97;1.87;;;16.60;99.90;;;17.20;nan;100077.22;4936035;29;20652;-66
2022/06/09 00:51:33;;;;;;;1.67;1.57;;;16.60;99.90;;;17.22;nan;100070.78;4953919;29;20676;-66
2022/06/09 00:54:22;;;;;;;1.57;1.37;;;16.60;99.90;;;17.24;nan;100076.72;4952636;28;20632;-66
2022/06/09 00:56:56;;;;;;;1.70;1.60;;;16.60;99.90;;;17.22;nan;100076.06;4952962;29;20628;-66
2022/06/09 00:59:28;;;;;;;1.47;1.47;;;16.60;99.90;;;17.23;nan;100072.41;4952903;29;20624;-65
2022/06/09 01:02:00;;;;;;;3.43;1.70;;;16.60;99.90;;;17.24;nan;100073.25;4952271;29;20639;-67
2022/06/09 01:04:29;;;;;;;1.50;1.40;;;16.60;99.90;;;17.25;nan;100072.28;4950313;28;20635;-66
2022/06/09 01:07:09;;;;;;;1.67;1.57;;;16.60;99.90;;;17.22;nan;100072.59;4949495;28;20632;-65
2022/06/09 01:09:37;;;;;;;1.23;1.23;;;16.60;99.90;;;17.14;nan;100077.88;4954168;28;20643;-66
2022/06/09 01:12:30;;;;;;;1.33;1.33;;;16.50;99.90;;;17.12;nan;100078.06;4953215;28;21245;-66
2022/06/09 01:15:07;;;;;;;1.60;1.47;;;16.50;99.90;;;17.05;nan;100088.44;4952420;28;20640;-66
2022/06/09 01:18:01;;;;;;;1.60;1.50;;;16.50;99.90;;;17.09;nan;100083.66;4953176;28;20648;-66
2022/06/09 01:20:57;;;;;;;1.20;1.20;;;16.50;99.90;;;17.10;nan;100085.28;4936134;29;20659;-66
2022/06/09 01:24:09;;;;;;;1.30;1.30;;;16.50;99.90;;;17.06;nan;100087.44;4942928;29;20640;-66
2022/06/09 01:26:42;;;;;;;3.10;1.67;;;16.50;99.90;;;17.03;nan;100093.03;4952195;29;20675;-66
2022/06/09 01:29:42;;;;;;;1.80;1.70;;;16.40;99.90;;;17.04;nan;100092.03;4951233;28;20668;-66
2022/06/09 01:32:24;;;;;;;1.40;1.40;;;16.40;99.90;;;17.05;nan;100096.34;4951756;28;20664;-67
2022/06/09 01:35:10;;;;;;;1.63;1.53;;;16.50;99.90;;;17.09;nan;100094.19;4951643;29;20675;-66
2022/06/09 01:37:51;;;;;;;1.27;1.27;;;16.50;99.90;;;17.10;nan;100100.28;4952651;28;20698;-65
2022/06/09 01:40:19;;;;;;;1.10;1.10;;;16.50;99.90;;;17.08;nan;100113.63;4951021;29;21021;-66
2022/06/09 01:42:54;;;;;;;1.20;1.20;;;16.50;99.90;;;17.03;nan;100106.22;4952115;28;20608;-66
2022/06/09 01:45:52;;;;;;;1.30;1.20;;;16.50;99.90;;;16.92;nan;100106.53;4953071;29;20624;-66
2022/06/09 01:48:21;;;;;;;2.40;1.17;;;16.40;99.90;;;16.88;nan;100107.03;4951300;28;20679;-66
2022/06/09 01:50:56;;;;;;;1.53;1.43;;;16.30;99.90;;;16.85;nan;100108.16;4952130;29;20636;-66
2022/06/09 01:54:01;;;;;;;1.60;1.50;;;16.30;99.90;;;16.85;nan;100116.06;4950316;28;20647;-66
2022/06/09 01:56:56;;;;;;;1.23;1.13;;;16.30;99.90;;;16.86;nan;100116.91;4950868;29;20623;-66
2022/06/09 01:59:54;;;;;;;3.50;1.30;;;16.30;99.90;;;16.79;nan;100116.72;4951001;28;20642;-66
2022/06/09 02:02:31;;;;;;;1.50;1.50;;;16.20;99.90;;;16.79;nan;100102.72;4949634;29;20632;-67
2022/06/09 02:05:06;;;;;;;2.30;1.50;;;16.20;99.90;;;16.71;nan;100106.19;4935701;28;20762;-66
2022/06/09 02:07:37;;;;;;;1.40;1.40;;;16.10;99.90;;;16.72;nan;100107.81;4950001;28;20663;-66
2022/06/09 02:10:22;;;;;;;1.77;1.50;;;16.20;99.90;;;16.74;nan;100102.38;4931836;29;20633;-66
2022/06/09 02:12:50;;;;;;;2.33;1.57;;;16.20;99.90;;;16.76;nan;100103.06;4932434;28;20668;-65
2022/06/09 02:15:25;;;;;;;1.80;1.40;;;16.20;99.90;;;16.77;nan;100102.91;4950954;28;20636;-66
2022/06/09 02:17:53;;;;;;;2.27;1.50;;;16.20;99.90;;;16.82;nan;100111.13;4951305;29;20672;-66
2022/06/09 02:20:22;;;;;;;2.70;1.60;;;16.20;99.90;;;16.82;nan;100108.47;4943569;28;21194;-66
2022/06/09 02:22:50;;;;;;;1.60;1.60;;;16.30;99.90;;;16.94;nan;100115.09;4952480;28;20628;-66
2022/06/09 02:25:17;;;;;;;1.73;1.57;;;16.40;99.90;;;16.90;nan;100118.22;4952058;28;20654;-66
2022/06/09 02:27:45;;;;;;;1.97;1.53;;;16.40;99.90;;;16.98;nan;100110.31;4950192;28;20687;-63
2022/06/09 02:30:12;;;;;;;2.07;1.40;;;16.40;99.90;;;16.94;nan;100115.09;4951769;28;20643;-66
2022/06/09 02:32:59;;;;;;;1.80;1.57;;;16.40;99.90;;;16.94;nan;100112.47;4950797;28;20675;-66
2022/06/09 02:35:26;;;;;;;2.70;1.77;;;16.40;99.90;;;16.97;nan;100121.88;4951902;28;20736;-66
2022/06/09 02:37:53;;;;;;;3.80;1.50;;;16.40;99.90;;;16.96;nan;100120.19;4950383;28;20668;-66
2022/06/09 02:40:20;;;;;;;4.67;1.73;;;16.40;99.90;;;16.96;nan;100118.41;4952679;28;20616;-66
2022/06/09 02:42:47;;;;;;;1.30;1.30;;;16.40;99.90;;;16.96;nan;100123.66;4951763;28;21032;-66
2022/06/09 02:45:16;;;;;;;2.03;1.40;;;16.40;99.90;;;16.96;nan;100126.31;4933179;29;20637;-66
2022/06/09 02:47:44;;;;;;;2.30;1.47;;;16.40;99.90;;;17.01;nan;100128.47;4939800;28;20672;-66
2022/06/09 02:50:12;;;;;;;6.33;1.57;;;16.50;99.90;;;17.03;nan;100129.94;4951486;28;21205;-65
2022/06/09 02:52:41;;;;;;;1.10;1.10;;;16.50;99.90;;;17.06;nan;100126.13;4951695;28;20656;-66
2022/06/09 02:55:10;;;;;;;2.30;1.80;;;16.50;99.90;;;17.01;nan;100129.25;4937949;28;20663;-66
2022/06/09 02:57:38;;;;;;;1.70;1.60;;;16.40;99.90;;;16.96;nan;100130.75;4951201;28;20648;-66
2022/06/09 03:00:09;;;;;;;3.90;1.90;;;16.40;99.90;;;16.93;nan;100129.25;4950835;28;20628;-66
2022/06/09 03:02:36;;;;;;;1.70;1.60;;;16.40;99.90;;;16.93;nan;100131.06;4952597;28;20615;-65
2022/06/09 03:05:04;;;;;;;1.60;1.50;;;16.30;99.90;;;16.86;nan;100135.34;4950809;28;21198;-66
2022/06/09 03:07:31;;;;;;;1.50;1.40;;;16.30;99.90;;;16.86;nan;100130.91;4951788;28;20667;-66
2022/06/09 03:09:58;;;;;;;2.83;1.67;;;16.30;99.90;;;16.80;nan;100131.53;4951870;28;20632;-66
2022/06/09 03:12:25;;;;;;;1.60;1.43;;;16.30;99.90;;;16.80;nan;100131.53;4951824;28;20678;-66
2022/06/09 03:14:53;;;;;;;;;;;16.20;99.90;;;16.76;nan;100132.03;4951250;28;20478;-66
2022/06/09 03:17:20;;;;;;;3.45;2.10;;;16.20;99.90;;;16.72;nan;100136.78;4951373;28;20730;-66
2022/06/09 03:19:47;;;;;;;2.30;1.70;;;16.20;99.90;;;16.77;nan;100137.16;4951762;28;20251;-66
2022/06/09 03:22:14;;;;;;;4.43;1.60;;;16.20;99.90;;;16.74;nan;100132.19;4952469;28;20636;-67
2022/06/09 03:24:42;;;;;;;2.53;1.70;;;16.20;99.90;;;16.78;nan;100133.50;4952435;29;20627;-66
2022/06/09 03:27:09;;;;;;;1.73;1.33;;;16.30;99.90;;;16.79;nan;100139.59;4950709;28;20636;-66
2022/06/09 03:29:36;;;;;;;1.87;1.60;;;16.20;99.90;;;16.66;nan;100139.25;4947999;28;20639;-66
2022/06/09 03:32:04;;;;;;;3.40;1.60;;;16.10;99.90;;;16.66;nan;100150.63;4950265;29;20675;-65
2022/06/09 03:34:31;;;;;;;1.53;1.40;;;16.10;99.90;;;16.65;nan;100156.84;4950598;28;21185;-66
2022/06/09 03:36:58;;;;;;;1.30;1.30;;;16.10;99.90;;;16.71;nan;100158.03;4952879;28;20960;-66
2022/06/09 03:39:25;;;;;;;2.13;1.77;;;16.20;99.90;;;16.70;nan;100157.19;4951456;28;21175;-66
2022/06/09 03:41:52;;;;;;;1.90;1.70;;;16.20;99.90;;;16.73;nan;100151.63;4951679;29;20628;-66
2022/06/09 03:44:19;;;;;;;2.00;1.90;;;16.20;99.90;;;16.75;nan;100154.94;4951402;28;21221;-66
2022/06/09 03:46:46;;;;;;;4.40;1.90;;;16.20;99.90;;;16.76;nan;100153.91;4951878;28;21189;-66
2022/06/09 03:49:14;;;;;;;2.40;1.70;;;16.20;99.90;;;16.79;nan;100155.41;4950125;28;20664;-67
2022/06/09 03:51:41;;;;;;;1.90;1.80;;;16.30;99.90;;;16.78;nan;100154.59;4950509;28;20682;-66
2022/06/09 03:54:08;;;;;;;1.83;1.73;;;16.20;99.90;;;16.80;nan;100160.50;4951863;28;21186;-65
2022/06/09 03:56:35;;;;;;;2.27;2.17;;;16.30;99.90;;;16.81;nan;100159.53;4947727;28;20632;-66
2022/06/09 03:59:02;;;;;;;2.10;1.70;;;16.30;99.90;;;16.86;nan;100166.97;4954466;28;20698;-66
2022/06/09 04:01:29;;;;;;;2.43;2.20;;;16.40;99.90;;;17.03;nan;100171.28;4951485;28;20623;-66
2022/06/09 04:03:56;;;;;;;2.13;2.03;;;16.50;99.90;;;17.08;nan;100163.69;4954431;28;20667;-66
2022/06/09 04:06:25;;;;;;;1.87;1.77;;;16.60;99.90;;;17.21;nan;100166.69;4953897;28;21233;-65
2022/06/09 04:08:52;;;;;;;2.27;2.17;;;16.70;99.90;;;17.43;nan;100176.59;4954181;28;20651;-66
2022/06/09 04:11:21;;;;;;;2.47;2.30;;;16.90;99.90;;;17.69;nan;100179.91;4953935;28;20639;-66
2022/06/09 04:13:49;;;;;;;2.50;2.33;;;17.20;99.90;;;17.96;nan;100178.69;4954607;28;20628;-66
2022/06/09 04:16:28;;;;;;;1.73;1.63;;;17.50;99.90;;;18.14;nan;100181.97;4953265;29;21182;-66
2022/06/09 04:18:59;;;;;;;2.33;2.13;;;17.70;99.90;;;18.35;nan;100184.88;4947659;28;20717;-66
2022/06/09 04:21:28;;;;;;;4.83;3.20;;;18.00;99.90;;;18.50;nan;100191.13;4946518;28;20652;-66
2022/06/09 04:23:56;;;;;;;2.20;2.00;;;18.20;99.90;;;18.83;nan;100198.88;4952157;28;20628;-65
2022/06/09 04:26:26;;;;;;;4.97;2.20;;;18.40;99.90;;;19.06;nan;100200.53;4952850;29;20635;-66
2022/06/09 04:28:54;;;;;;;1.90;1.80;;;18.70;99.90;;;19.32;nan;100216.06;4979127;23;20706;-62
2022/06/09 04:31:22;;;;;;;2.10;2.00;;;19.00;99.90;;;19.38;nan;100215.41;4968908;28;21220;-62
2022/06/09 04:33:49;;;;;;;2.17;2.03;;;19.00;99.90;;;19.43;nan;100212.22;4952823;29;20616;-62
2022/06/09 04:36:18;;;;;;;1.90;1.80;;;19.00;99.90;;;19.40;nan;100217.91;4954551;28;20619;-61
2022/06/09 04:38:45;;;;;;;6.43;1.90;;;19.00;99.90;;;19.30;nan;100218.06;4953562;28;20648;-62
2022/06/09 04:41:14;;;;;;;2.30;1.70;;;18.80;99.90;;;19.25;nan;100221.25;4953704;28;20619;-62
2022/06/09 04:43:44;;;;;;;1.97;1.70;;;18.80;99.90;;;19.27;nan;100223.75;4954756;29;20639;-62
2022/06/09 04:46:18;;;;;;;2.70;1.60;;;18.80;99.90;;;19.29;nan;100227.81;4953778;29;20613;-61
2022/06/09 04:48:45;;;;;;;2.57;1.93;;;18.80;99.90;;;19.40;nan;100231.13;4952754;28;20668;-62
2022/06/09 04:51:17;;;;;;;1.97;1.87;;;18.90;99.90;;;19.62;nan;100235.56;4954124;28;20632;-64
2022/06/09 04:53:44;;;;;;;1.53;1.43;;;19.20;99.90;;;19.80;nan;100228.97;4954761;28;21251;-63
2022/06/09 04:56:12;;;;;;;1.90;1.80;;;19.40;99.90;;;19.98;nan;100234.75;4952901;29;20647;-63
2022/06/09 04:58:39;;;;;;;2.23;1.97;;;19.60;99.90;;;20.19;nan;100235.88;4954180;28;20652;-63
2022/06/09 05:01:14;;;;;;;1.80;1.70;;;19.80;99.90;;;20.41;nan;100235.00;4951313;28;20628;-62
2022/06/09 05:03:42;;;;;;;2.50;1.70;;;20.10;99.90;;;20.49;nan;100242.84;4953085;29;20632;-62
2022/06/09 05:06:09;;;;;;;4.70;1.90;;;20.10;99.90;;;20.45;nan;100239.75;4952588;28;20639;-61
2022/06/09 05:08:37;;;;;;;1.90;1.23;;;20.10;99.90;;;20.60;nan;100245.88;4952759;28;21182;-62
2022/06/09 05:11:04;;;;;;;2.00;1.90;;;20.30;99.90;;;20.64;nan;100246.31;4953767;28;20636;-62
2022/06/09 05:13:31;;;;;;;6.93;0.90;;;20.30;99.90;;;20.82;nan;100252.06;4953503;28;21066;-62
2022/06/09 05:15:58;;;;;;;1.07;0.97;;;20.50;99.90;;;20.84;nan;100256.19;4953150;28;21174;-62
2022/06/09 05:18:29;;;;;;;1.47;1.37;;;20.50;99.90;;;20.85;nan;100256.97;4951230;29;20663;-62
2022/06/09 05:20:57;;;;;;;0.90;0.90;;;20.60;99.90;;;20.78;nan;100258.75;4953203;28;21031;-60
2022/06/09 05:23:26;;;;;;;3.70;1.20;;;20.40;99.90;;;20.73;nan;100266.44;4953756;28;21039;-62
2022/06/09 05:25:57;;;;;;;5.20;1.53;;;20.40;99.90;;;20.80;nan;100267.34;4953009;29;20717;-63
2022/06/09 05:28:26;;;;;;;3.00;1.47;;;20.50;99.90;;;20.89;nan;100274.19;4951418;28;20679;-59
2022/06/09 05:30:54;;;;;;;4.80;1.47;;;20.60;99.90;;;21.01;nan;100271.88;4951103;28;21197;-62
2022/06/09 05:33:22;;;;;;;2.70;1.17;;;20.70;99.90;;;21.08;nan;100278.13;4952090;28;20679;-63
2022/06/09 05:35:49;;;;;;;6.80;1.73;;;20.70;99.90;;;21.21;nan;100284.38;4952622;28;20721;-62
2022/06/09 05:46:44;;;;;;;1.90;1.50;;;21.40;99.90;;;21.97;nan;100301.53;4952627;28;20705;-62
2022/06/09 05:49:15;;;;;;;2.83;1.47;;;21.70;99.90;;;22.21;nan;100304.56;4952544;29;21225;-62
2022/06/09 05:51:43;;;;;;;1.30;1.20;;;22.00;99.90;;;22.50;nan;100310.72;4953049;29;20623;-61
2022/06/09 05:54:11;;;;;;;1.60;1.50;;;22.30;99.90;;;22.50;nan;100311.53;4951742;28;21535;-63
2022/06/09 05:56:38;;;;;;;10.60;1.53;;;22.30;99.90;;;22.60;nan;100320.00;4952406;29;20620;-62
2022/06/09 05:59:05;;;;;;;6.43;1.50;;;22.30;99.90;;;22.79;nan;100327.28;4952175;28;20661;-62
2022/06/09 06:01:33;;;;;;;1.43;1.33;;;22.50;99.10;;;22.89;nan;100329.59;4952803;29;20622;-62
2022/06/09 06:04:02;;;;;;;1.77;1.50;;;22.70;98.20;;;23.03;nan;100334.78;4952879;29;20636;-62
2022/06/09 06:06:35;;;;;;;1.77;1.17;;;22.80;97.60;;;22.55;nan;100335.72;4952893;28;20619;-62
2022/06/09 06:09:15;;;;;;;1.33;1.33;;;22.30;97.60;;;22.38;nan;100347.66;4947648;28;20664;-62
2022/06/09 06:11:44;;;;;;;7.07;1.33;;;22.10;97.60;;;22.38;nan;100345.81;4948644;29;20635;-63
2022/06/09 06:14:12;;;;;;;3.80;1.70;;;22.00;97.70;;;22.66;nan;100339.69;4941359;28;20669;-62
2022/06/09 06:16:40;;;;;;;1.70;1.10;;;22.30;97.20;;;22.94;nan;100362.56;4952077;28;20674;-62
2022/06/09 06:19:14;;;;;;;1.50;1.40;;;22.60;96.90;;;22.57;nan;100357.63;4951676;28;20652;-62
2022/06/09 06:21:42;;;;;;;12.23;1.67;;;22.30;96.50;;;22.22;nan;100364.69;4952413;29;20619;-63
2022/06/09 06:24:11;;;;;;;1.57;1.30;;;21.80;97.20;;;21.81;nan;100357.50;4951726;28;20632;-62
2022/06/09 06:26:38;;;;;;;1.20;1.10;;;21.40;97.90;;;21.77;nan;100374.84;4952478;28;20628;-63
2022/06/09 06:29:08;;;;;;;1.70;0.80;;;21.20;98.50;;;21.86;nan;100366.59;4948508;28;20793;-62
2022/06/09 06:31:36;;;;;;;5.27;1.30;;;21.60;98.10;;;21.67;nan;100380.47;4950259;28;20635;-62
2022/06/09 06:34:03;;;;;;;1.50;1.30;;;21.30;98.40;;;21.46;nan;100381.25;4950289;28;20683;-62
2022/06/09 06:36:30;;;;;;;0.90;0.90;;;21.00;98.90;;;21.15;nan;100385.94;4948896;28;20652;-62
2022/06/09 06:38:57;;;;;;;6.47;1.40;;;20.70;99.80;;;20.69;nan;100387.94;4952069;29;21251;-63
2022/06/09 06:41:25;;;;;;;0.93;0.90;;;20.20;99.90;;;20.40;nan;100397.66;4951139;28;20620;-63
2022/06/09 06:43:52;;;;;;;4.40;1.40;;;19.90;99.90;;;20.29;nan;100403.38;4952228;28;20640;-62
2022/06/09 06:46:20;;;;;;;3.40;1.17;;;19.80;99.90;;;20.11;nan;100401.81;4950173;29;20639;-63
2022/06/09 06:48:48;;;;;;;4.60;1.30;;;19.60;99.90;;;19.92;nan;100407.59;4951076;28;20664;-62
2022/06/09 06:51:16;;;;;;;1.47;1.20;;;19.40;99.90;;;19.80;nan;100410.81;4953370;28;20632;-63
2022/06/09 06:53:43;;;;;;;6.63;1.20;;;19.30;99.90;;;19.69;nan;100414.69;4953486;28;21249;-63
2022/06/09 06:56:10;;;;;;;3.40;1.20;;;19.20;99.90;;;19.61;nan;100421.84;4952801;28;20621;-63
2022/06/09 06:58:37;;;;;;;3.60;1.80;;;19.10;99.90;;;19.48;nan;100421.56;4947851;28;20659;-63
2022/06/09 07:01:05;;;;;;;3.43;1.20;;;19.00;99.90;;;19.51;nan;100429.97;4950336;28;20640;-63
2022/06/09 07:03:33;;;;;;;1.63;1.37;;;19.00;99.90;;;19.52;nan;100434.28;4942053;28;20633;-62
2022/06/09 07:06:03;;;;;;;1.57;1.17;;;19.00;99.90;;;19.60;nan;100430.75;4946883;29;20628;-63
2022/06/09 07:08:31;;;;;;;1.47;1.17;;;19.10;99.90;;;19.62;nan;100432.25;4941305;28;20671;-62
2022/06/09 07:10:58;;;;;;;2.53;1.40;;;19.10;99.90;;;19.58;nan;100438.06;4952538;28;20634;-63
2022/06/09 07:13:25;;;;;;;4.53;1.97;;;19.00;99.90;;;19.49;nan;100442.56;4950883;28;20680;-62
2022/06/09 07:15:53;;;;;;;1.37;1.30;;;19.00;99.90;;;19.44;nan;100447.56;4951042;29;21237;-62
2022/06/09 07:18:27;;;;;;;1.00;1.00;;;18.90;99.90;;;19.48;nan;100454.16;4948960;28;21028;-62
2022/06/09 07:20:54;;;;;;;1.77;1.47;;;18.90;99.90;;;19.51;nan;100448.50;4931047;29;20641;-64
2022/06/09 07:23:22;;;;;;;5.40;2.10;;;19.00;99.90;;;19.65;nan;100463.66;4934779;28;20637;-62
2022/06/09 07:25:49;;;;;;;0.87;0.87;;;19.10;99.90;;;19.72;nan;100456.66;4932149;29;20640;-62
2022/06/09 07:28:16;;;;;;;1.00;1.00;;;19.20;99.90;;;19.70;nan;100463.16;4935270;28;20679;-63
2022/06/09 07:30:44;;;;;;;1.07;0.97;;;19.20;99.90;;;19.69;nan;100464.97;4953763;28;20640;-63
2022/06/09 07:33:12;;;;;;;1.30;1.20;;;19.20;99.90;;;19.63;nan;100473.59;4953254;28;20682;-62
2022/06/09 07:35:41;;;;;;;1.57;1.40;;;19.20;99.90;;;19.60;nan;100473.94;4954768;28;21001;-62
2022/06/09 07:38:11;;;;;;;3.00;1.40;;;19.10;99.90;;;19.60;nan;100473.09;4946581;28;20660;-62
2022/06/09 07:40:40;;;;;;;1.63;1.53;;;19.10;99.90;;;19.67;nan;100474.91;4935567;29;20632;-64
2022/06/09 07:43:08;;;;;;;1.67;1.50;;;19.20;99.90;;;19.92;nan;100465.84;4951481;28;20624;-64
2022/06/09 07:45:37;;;;;;;7.30;1.00;;;19.50;99.90;;;20.13;nan;100468.69;4951824;28;20629;-64
2022/06/09 07:48:05;;;;;;;2.93;1.20;;;19.70;99.90;;;20.28;nan;100476.72;4947381;28;20660;-62
2022/06/09 07:50:35;;;;;;;1.27;1.17;;;19.80;99.90;;;20.30;nan;100480.03;4944702;29;21202;-64
2022/06/09 07:53:02;;;;;;;1.60;1.50;;;19.90;99.90;;;20.20;nan;100478.56;4937965;28;20688;-60
2022/06/09 07:55:30;;;;;;;1.90;1.33;;;19.70;99.90;;;20.13;nan;100476.63;4952798;28;20634;-63
2022/06/09 07:57:57;;;;;;;1.60;1.40;;;19.70;99.90;;;20.01;nan;100472.75;4955486;29;20651;-63
2022/06/09 08:00:25;;;;;;;1.40;1.23;;;19.60;99.90;;;19.98;nan;100472.25;4947497;28;20648;-63
2022/06/09 08:02:53;;;;;;;3.03;1.00;;;19.40;99.90;;;20.08;nan;100473.69;4936633;29;20628;-63
2022/06/09 08:05:23;;;;;;;2.40;1.50;;;19.60;99.90;;;20.18;nan;100475.28;4934706;29;21186;-63
2022/06/09 08:07:50;;;;;;;5.40;2.17;;;19.70;99.90;;;20.21;nan;100472.31;4942753;28;20680;-64
2022/06/09 08:10:24;;;;;;;1.57;1.47;;;19.70;99.90;;;20.08;nan;100478.16;4947720;28;21410;-64
2022/06/09 08:12:55;;;;;;;4.93;1.30;;;19.60;99.90;;;20.04;nan;100480.31;4954153;28;20664;-63
2022/06/09 08:15:24;;;;;;;2.27;1.80;;;19.50;99.90;;;20.09;nan;100485.94;4948848;28;20644;-65
2022/06/09 08:17:53;;;;;;;2.03;1.47;;;19.60;99.90;;;20.10;nan;100487.56;4953601;29;20666;-67
2022/06/09 08:20:22;;;;;;;2.13;1.73;;;19.60;99.90;;;20.05;nan;100478.50;4953762;28;20656;-68
2022/06/09 08:23:19;;;;;;;16.53;9.37;;;19.50;99.90;;;20.00;nan;100489.63;4946064;28;20635;-65
2022/06/09 08:25:48;;;;;;;6.53;3.20;;;19.60;99.90;;;19.89;nan;100499.78;4942730;29;20619;-64
2022/06/09 08:28:18;;;;;;;2.27;1.60;;;19.40;99.90;;;19.70;nan;100500.22;4940766;29;20760;-64
2022/06/09 08:30:54;;;;;;;3.23;1.70;;;19.20;99.90;;;19.94;nan;100505.38;4947123;28;20639;-65
2022/06/09 08:33:23;;;;;;;1.40;1.30;;;19.50;99.90;;;20.23;nan;100504.75;4952944;29;20664;-65
2022/06/09 08:35:51;;;;;;;1.40;1.30;;;19.70;99.90;;;20.66;nan;100504.09;4953774;28;20632;-65
2022/06/09 08:38:24;;;;;;;1.90;1.30;;;20.20;99.90;;;20.91;nan;100512.69;4951989;28;20664;-65
2022/06/09 08:41:18;;;;;;;1.40;1.30;;;20.50;99.90;;;20.98;nan;100517.06;4953555;28;20628;-65
2022/06/09 08:44:03;;;;;;;5.27;1.70;;;20.60;99.90;;;21.05;nan;100517.22;4931592;29;20637;-65
2022/06/09 08:47:05;;;;;;;1.40;1.40;;;20.60;99.90;;;21.32;nan;100525.41;4942385;28;21080;-65
2022/06/09 08:50:01;;;;;;;1.57;1.40;;;20.80;99.90;;;21.64;nan;100524.22;4954308;29;21263;-65
2022/06/09 08:52:41;;;;;;;6.20;1.67;;;21.20;99.80;;;22.03;nan;100526.56;4952619;28;20726;-66
2022/06/09 08:55:40;;;;;;;4.50;1.87;;;21.50;99.20;;;23.87;nan;100524.47;4954049;28;20628;-66
2022/06/09 08:58:24;;;;;;;;;;;22.90;97.80;;;28.41;nan;100529.09;4954035;28;20486;-65
2022/06/09 09:00:59;;;;;;;;;;;27.50;91.00;;;28.41;nan;100529.09;4954291;28;19927;-66
2022/06/09 09:03:40;;;;;;;1.90;1.23;;;32.50;71.60;;;36.42;nan;100533.53;4954153;28;20668;-67
2022/06/09 09:06:28;;;;;;;1.90;1.60;;;36.50;55.50;;;38.75;nan;100524.31;4951183;28;24992;-66
2022/06/09 09:09:22;;;;;;;1.50;1.40;;;38.90;48.90;;;39.49;nan;100521.28;4951283;28;20611;-66
2022/06/09 09:12:27;;;;;;;3.50;1.87;;;39.70;45.30;;;37.54;nan;100525.19;4952221;29;21019;-66
2022/06/09 09:15:10;;;;;;;2.53;1.40;;;37.80;44.70;;;33.93;nan;100521.66;4952115;28;20659;-66
2022/06/09 09:18:11;;;;;;;3.67;1.63;;;34.20;47.30;;;31.43;nan;100512.97;4952266;29;21431;-66
2022/06/09 09:20:52;;;;;;;2.97;1.40;;;31.30;50.90;;;29.00;nan;100510.22;4943561;28;20629;-65
2022/06/09 09:23:23;;;;;;;;;;;28.70;54.70;;;27.61;nan;100509.69;4954629;28;20833;-65
2022/06/09 09:26:15;;;;;;;3.77;1.87;;;27.10;57.60;;;25.99;nan;100512.56;4950182;28;20747;-66
2022/06/09 09:28:55;;;;;;;1.50;1.40;;;25.70;60.10;;;25.18;nan;100517.53;4951566;29;20694;-66
2022/06/09 09:31:54;;;;;;;2.13;1.43;;;24.80;62.60;;;24.89;nan;100514.47;4952020;28;20648;-65
2022/06/09 09:34:29;;;;;;;1.80;1.40;;;24.30;64.70;;;25.20;nan;100525.31;4953153;29;21230;-66
2022/06/09 09:37:09;;;;;;;1.27;1.17;;;24.60;65.40;;;25.24;nan;100516.69;4951696;28;20624;-65
2022/06/09 09:40:20;;;;;;;2.87;1.73;;;24.80;65.50;;;24.98;nan;100521.25;4950450;29;20668;-66
2022/06/09 09:42:50;;;;;;;2.50;1.60;;;24.40;66.70;;;24.28;nan;100522.56;4953838;28;20639;-66
2022/06/09 09:45:42;;;;;;;2.60;1.67;;;23.90;67.80;;;23.79;nan;100527.28;4931744;29;20637;-67
2022/06/09 09:48:18;;;;;;;2.87;1.37;;;23.30;70.10;;;23.51;nan;100534.53;4932465;29;21042;-68
2022/06/09 09:50:52;;;;;;;2.40;1.17;;;23.00;71.50;;;23.46;nan;100542.25;4935035;29;20627;-67
2022/06/09 09:53:19;;;;;;;6.37;1.73;;;22.90;72.80;;;23.29;nan;100539.06;4942936;28;21252;-67
2022/06/09 09:55:59;;;;;;;2.70;2.03;;;22.70;73.80;;;22.88;nan;100530.13;4951364;29;24533;-66
2022/06/09 09:58:48;;;;;;;6.72;2.10;;;22.40;75.10;;;22.59;nan;100540.94;4951373;28;24516;-66
2022/06/09 10:10:27;;;;;;;3.28;2.00;;;23.80;75.90;;;24.12;nan;100552.25;4945618;28;24820;-67
2022/06/09 10:13:16;;;;;;;2.70;2.08;;;23.90;75.40;;;24.32;nan;100545.13;4941606;28;24481;-68
2022/06/09 10:16:03;;;;;;;4.53;1.92;;;23.90;76.20;;;25.09;nan;100549.97;4950601;28;24477;-65
2022/06/09 10:18:54;;;;;;;1.70;1.60;;;24.70;74.70;;;25.40;nan;100567.00;4950347;29;24417;-66
2022/06/09 10:21:56;;;;;;;2.47;2.00;;;25.10;72.80;;;25.59;nan;100568.03;4947412;28;24805;-66
2022/06/09 10:24:35;;;;;;;1.90;1.65;;;25.20;72.90;;;25.94;nan;100568.53;4950344;28;24608;-67
2022/06/09 10:27:13;;;;;;;6.93;2.00;;;25.60;71.30;;;26.24;nan;100567.00;4950834;28;24538;-67
2022/06/09 10:29:53;;;;;;;2.35;1.70;;;25.90;70.80;;;26.54;nan;100560.03;5000655;23;24481;-64
2022/06/09 10:32:29;;;;;;;2.70;1.63;;;26.20;70.30;;;26.81;nan;100560.72;4967351;28;24820;-65
2022/06/09 10:35:01;;;;;;;2.03;1.85;;;26.50;69.80;;;26.66;nan;100555.63;4969473;28;24800;-65
2022/06/09 10:38:03;;;;;;;3.83;1.90;;;26.40;69.90;;;26.97;nan;100559.34;4966602;28;24548;-66
2022/06/09 10:40:46;;;;;;;1.70;1.50;;;26.50;69.00;;;27.02;nan;100557.66;4941859;28;24588;-65
2022/06/09 10:43:34;;;;;;;3.38;1.80;;;26.60;67.60;;;27.12;nan;100565.19;4944673;29;24944;-65
2022/06/09 10:46:26;;;;;;;2.50;1.80;;;26.70;67.40;;;26.68;nan;100563.44;4948686;29;24509;-64
2022/06/09 10:55:49;;;;;;;1.60;1.50;;;25.30;69.60;;;25.46;nan;100569.91;4945240;29;24453;-64
2022/06/09 10:58:27;;;;;;;3.50;1.70;;;25.00;69.90;;;25.35;nan;100565.97;4949743;29;24446;-64
2022/06/09 11:00:56;;;;;;;2.45;1.50;;;25.00;69.80;;;25.14;nan;100566.19;4950035;28;24618;-63
2022/06/09 11:03:31;;;;;;;1.70;1.50;;;24.80;70.10;;;24.62;nan;100569.59;4951235;28;24933;-65
2022/06/09 11:06:27;;;;;;;4.63;1.65;;;24.30;71.60;;;24.31;nan;100570.16;4936462;29;24585;-65
2022/06/09 11:09:10;;;;;;;1.90;1.60;;;23.90;72.50;;;24.48;nan;100576.78;4939778;29;25234;-64
2022/06/09 11:12:02;;;;;;;1.58;1.48;;;24.10;72.60;;;24.63;nan;100577.44;4953850;28;24997;-64
2022/06/09 11:15:15;;;;;;;2.38;1.60;;;24.20;72.30;;;24.84;nan;100573.78;4954456;28;24821;-63
2022/06/09 11:18:21;;;;;;;3.60;2.50;;;24.40;72.00;;;24.91;nan;100582.63;4947137;28;24450;-64
2022/06/09 11:21:03;;;;;;;2.78;1.90;;;24.50;71.00;;;24.84;nan;100581.78;4952851;29;24429;-64